Decoded Metar for KPOB (FAYETTEVILLE in NC, USA) (IATA:POB) | Meteo·Mobile Aviation Weather
aviador You're here:

KPOB Decoded Metar

FAYETTEVILLE in NC, USA
Report Time2019-04-20 23:56:00
UTC Time2019-04-21 00:12:42
Flight Rules vfr VFR
Wind250° at 09 kt
W.Decomp.*RWY 23: 8.0 kt HW 4.1 kt RCW
Visibility9999 m
Phenomena:N/A
Clouds:Broken 080 Hf
Expected CloudBase > 3,200 ft AGL from Temp-Dew spread
Ceiling8,000 ft
Temp14°C (ISA -1)
Dew Point06°C (59% RH)
AAT9.9°C
QNH1010 hPa
Density Alt381 ft
Elevation217 ft
Report Wrong Elevation
Raw Report
KPOB 202356Z AUTO 25009KT 10SM BKN080 14/06 A2983 RMK AO2 SLP104
60000 T01360057 10173 20136 52023 $=

Extra information for KPOB:More info

Metar Taf Metar & Taf Last 4 Metars F.Rules Stats Wind Profile Meteogram Temp Stats Airport Information Weather charts Add Link Nearby VenuesMetar ALERT Operation Metar Decoded Social comments

AIRNAV info for KPOB